createdAt,value
2019-02-06T15:59:11.554Z,12.25
2019-02-06T16:02:42.632Z,10.32
2019-02-06T16:05:48.816Z,9.33
2019-02-06T16:09:07.471Z,9.80
2019-02-06T16:11:43.209Z,9.40
2019-02-06T16:14:49.510Z,8.68
2019-02-06T16:17:55.117Z,9.63
2019-02-06T16:21:12.670Z,10.30
2019-02-06T16:24:21.778Z,8.88
2019-02-06T16:27:24.354Z,6.67
2019-02-06T16:30:04.645Z,6.65
2019-02-06T16:32:58.718Z,7.90
2019-02-06T16:35:58.574Z,6.53
2019-02-06T16:38:44.477Z,6.35
2019-02-06T16:41:38.535Z,6.50
2019-02-06T16:44:36.441Z,6.65
2019-02-06T16:47:45.281Z,6.42
2019-02-06T16:50:26.715Z,6.05
2019-02-06T16:53:25.799Z,6.30
2019-02-06T16:56:39.849Z,6.60
2019-02-06T16:59:45.750Z,6.53
2019-02-06T17:03:00.193Z,7.00
2019-02-06T17:06:02.102Z,6.25
2019-02-06T17:08:46.133Z,7.05
2019-02-06T17:11:37.711Z,6.60
2019-02-06T17:14:53.792Z,5.92
2019-02-06T17:17:50.549Z,6.55
2019-02-06T17:21:18.781Z,6.33
2019-02-06T17:24:28.404Z,7.42
2019-02-06T17:27:13.522Z,6.20
2019-02-06T17:30:29.878Z,5.67
2019-02-06T17:33:39.002Z,6.40
2019-02-06T17:36:44.358Z,6.78
2019-02-06T17:39:56.265Z,4.92
2019-02-06T17:42:48.817Z,6.58
2019-02-06T17:46:11.685Z,5.67
2019-02-06T17:49:20.374Z,4.97
2019-02-06T17:52:57.885Z,6.40
2019-02-06T17:55:27.046Z,4.90
2019-02-06T17:57:57.665Z,5.53
2019-02-06T18:01:03.140Z,6.80
2019-02-06T18:03:36.461Z,5.60
2019-02-06T18:06:05.786Z,6.85
2019-02-06T18:08:34.522Z,6.05
2019-02-06T18:11:03.359Z,5.75
2019-02-06T18:13:32.175Z,5.28
2019-02-06T18:16:00.943Z,5.15
2019-02-06T18:18:29.679Z,5.28
2019-02-06T18:20:58.513Z,5.47
2019-02-06T18:23:27.253Z,5.65
2019-02-06T18:25:56.359Z,5.70
2019-02-06T18:28:25.092Z,5.17
2019-02-06T18:30:53.837Z,5.12
2019-02-06T18:33:22.752Z,4.85
2019-02-06T18:35:51.763Z,4.22
2019-02-06T18:38:20.526Z,6.35
2019-02-06T18:40:49.375Z,5.90
2019-02-06T18:43:18.132Z,4.70
2019-02-06T18:45:46.894Z,6.47
2019-02-06T18:48:15.759Z,5.67
2019-02-06T18:50:44.815Z,5.95
2019-02-06T18:53:13.857Z,5.70
2019-02-06T18:55:42.597Z,6.17
2019-02-06T18:58:11.364Z,5.95
2019-02-06T19:00:40.211Z,5.30
2019-02-06T19:03:13.386Z,6.12
2019-02-06T19:05:42.303Z,5.28
2019-02-06T19:08:11.163Z,5.70
2019-02-06T19:10:39.966Z,6.12
2019-02-06T19:13:09.099Z,6.33
2019-02-06T19:15:37.840Z,6.03
2019-02-06T19:18:08.375Z,5.45
2019-02-06T19:20:37.296Z,5.37
2019-02-06T19:23:06.176Z,6.30
2019-02-06T19:25:34.989Z,5.85
2019-02-06T19:28:03.795Z,6.55
2019-02-06T19:30:35.009Z,5.08
2019-02-06T19:33:03.784Z,6.05
2019-02-06T19:35:32.522Z,5.83
2019-02-06T19:38:01.290Z,5.70
2019-02-06T19:40:30.027Z,6.00
2019-02-06T19:43:02.353Z,6.60
2019-02-06T19:47:57.666Z,6.03
2019-02-06T19:50:46.806Z,5.67
2019-02-06T19:53:15.649Z,6.20
2019-02-06T19:55:44.467Z,6.10
2019-02-06T19:58:13.241Z,6.62
2019-02-06T20:00:42.071Z,6.55
2019-02-06T20:03:10.976Z,5.92
2019-02-06T20:05:39.712Z,5.62
2019-02-06T20:08:10.592Z,6.00
2019-02-06T20:10:41.828Z,5.28
2019-02-06T20:13:14.371Z,6.40
2019-02-06T20:16:00.429Z,5.97
2019-02-06T20:18:29.224Z,6.42
2019-02-06T20:20:59.456Z,6.35
2019-02-06T20:23:28.476Z,6.03
2019-02-06T20:25:57.457Z,6.15
2019-02-06T20:28:26.740Z,5.92
2019-02-06T20:30:57.227Z,6.12
2019-02-06T20:34:05.798Z,6.25
2019-02-06T20:36:34.718Z,5.78
2019-02-06T20:39:08.734Z,6.35
2019-02-06T20:41:37.466Z,5.72
2019-02-06T20:44:06.249Z,5.45
2019-02-06T20:46:35.260Z,6.35
2019-02-06T20:49:04.035Z,5.72
2019-02-06T20:51:33.105Z,5.22
2019-02-06T20:54:02.321Z,5.12
2019-02-06T20:56:31.745Z,6.15
2019-02-06T20:59:00.507Z,6.12
2019-02-06T21:01:30.413Z,6.30
2019-02-06T21:03:59.288Z,5.58
2019-02-06T21:06:28.371Z,5.65
2019-02-06T21:08:57.655Z,5.85
2019-02-06T21:11:26.966Z,6.47
2019-02-06T21:13:55.728Z,5.30
2019-02-06T21:16:24.692Z,5.42
2019-02-06T21:18:56.964Z,6.08
2019-02-06T21:21:25.679Z,5.28
2019-02-06T21:23:54.441Z,6.30
2019-02-06T21:26:23.278Z,5.20
2019-02-06T21:28:52.327Z,4.72
2019-02-06T21:31:24.203Z,7.30
2019-02-06T21:33:53.028Z,5.50
2019-02-06T21:36:21.768Z,6.12
2019-02-06T21:38:50.535Z,5.37
2019-02-06T21:41:21.910Z,6.35
2019-02-06T21:43:51.219Z,5.90
2019-02-06T21:46:19.952Z,5.72
2019-02-06T21:48:48.713Z,5.80
2019-02-06T21:51:17.448Z,6.55
2019-02-06T21:53:46.205Z,6.45
2019-02-06T21:56:14.943Z,6.40
2019-02-06T21:58:43.762Z,6.67
2019-02-06T22:01:12.547Z,6.78
2019-02-06T22:03:41.276Z,6.37
2019-02-06T22:06:10.042Z,5.90
2019-02-06T22:08:38.821Z,6.83
2019-02-06T22:11:07.658Z,6.20
2019-02-06T22:13:36.795Z,6.62
2019-02-06T22:16:05.590Z,6.20
2019-02-06T22:18:34.322Z,7.05
2019-02-06T22:21:03.271Z,5.53
2019-02-06T22:23:32.009Z,5.33
2019-02-06T22:26:00.768Z,5.50
2019-02-06T22:28:29.833Z,6.60
2019-02-06T22:30:58.594Z,5.92
2019-02-06T22:33:27.326Z,5.00
2019-02-06T22:35:56.093Z,6.03
2019-02-06T22:38:24.853Z,5.87
2019-02-06T22:40:53.614Z,5.80
2019-02-06T22:43:22.357Z,6.85
2019-02-06T22:45:51.130Z,6.78
2019-02-06T22:48:19.945Z,5.80
2019-02-06T22:50:48.717Z,6.37
2019-02-06T22:53:17.453Z,6.80
2019-02-06T22:55:46.214Z,5.67
2019-02-06T22:58:14.957Z,5.83
2019-02-06T23:01:19.661Z,5.85
2019-02-06T23:03:49.318Z,6.05
2019-02-06T23:06:18.114Z,6.20
2019-02-06T23:08:46.898Z,6.00
2019-02-06T23:11:15.656Z,6.28
2019-02-06T23:13:44.465Z,6.53
2019-02-06T23:16:13.235Z,5.20
2019-02-06T23:18:42.098Z,5.92
2019-02-06T23:21:10.861Z,4.95
2019-02-06T23:23:39.768Z,5.17
2019-02-06T23:26:08.609Z,5.67
2019-02-06T23:28:37.345Z,6.12
2019-02-06T23:31:06.105Z,5.60
2019-02-06T23:33:34.919Z,4.97
2019-02-06T23:36:03.910Z,5.42
2019-02-06T23:38:33.129Z,5.35
2019-02-06T23:41:02.008Z,5.53
2019-02-06T23:43:30.817Z,5.62
2019-02-06T23:45:59.576Z,5.00
2019-02-06T23:48:28.401Z,5.60
2019-02-06T23:50:57.165Z,5.75
2019-02-06T23:53:26.176Z,5.95
2019-02-06T23:55:54.972Z,5.50
2019-02-06T23:58:23.709Z,5.78
